Time,TemperatureF,DewpointF,PressureIn,WindDirection,WindDirectionDegrees,WindSpeedMPH,WindSpeedGustMPH,Humidity,HourlyPrecipIn,Conditions,Clouds,dailyrainin,SolarRadiationWatts/m^2,SoftwareType,DateUTC
2013-01-20 00:12:00,27.0,-17.0,-100.00,WSW,251,5.0,17.0,13,0.00,,,0.00,0.000000,,2013-01-20 07:12:00,
2013-01-20 00:22:00,27.0,-17.0,-100.00,WSW,251,5.0,17.0,13,0.00,,,0.00,0.000000,,2013-01-20 07:22:00,
2013-01-20 00:32:00,27.0,-17.0,-100.00,WSW,251,5.0,17.0,13,0.00,,,0.00,0.000000,,2013-01-20 07:32:00,
2013-01-20 00:42:00,27.0,-17.0,-100.00,WSW,251,5.0,17.0,13,0.00,,,0.00,0.000000,,2013-01-20 07:42:00,
2013-01-20 00:52:00,27.0,-17.0,-100.00,WSW,251,5.0,17.0,13,0.00,,,0.00,0.000000,,2013-01-20 07:52:00,
2013-01-20 01:22:00,28.0,-18.0,-100.00,SW,230,14.0,23.0,12,0.00,,,0.00,0.000000,,2013-01-20 08:22:00,
2013-01-20 01:32:00,28.0,-18.0,-100.00,SW,230,14.0,23.0,12,0.00,,,0.00,0.000000,,2013-01-20 08:32:00,
2013-01-20 01:42:00,28.0,-18.0,-100.00,SW,230,14.0,23.0,12,0.00,,,0.00,0.000000,,2013-01-20 08:42:00,
2013-01-20 01:52:00,28.0,-18.0,-100.00,SW,230,14.0,23.0,12,0.00,,,0.00,0.000000,,2013-01-20 08:52:00,
2013-01-20 02:12:00,25.0,-16.0,-100.00,SSW,204,10.0,22.0,15,0.00,,,0.00,0.000000,,2013-01-20 09:12:00,
2013-01-20 02:22:00,25.0,-16.0,-100.00,SSW,204,10.0,22.0,15,0.00,,,0.00,0.000000,,2013-01-20 09:22:00,
2013-01-20 02:33:00,25.0,-16.0,-100.00,SSW,204,10.0,22.0,15,0.00,,,0.00,0.000000,,2013-01-20 09:33:00,
2013-01-20 02:42:00,25.0,-16.0,-100.00,SSW,204,10.0,22.0,15,0.00,,,0.00,0.000000,,2013-01-20 09:42:00,
2013-01-20 02:52:00,25.0,-16.0,-100.00,SSW,204,10.0,22.0,15,0.00,,,0.00,0.000000,,2013-01-20 09:52:00,
2013-01-20 03:22:00,24.0,-10.0,-100.00,South,179,10.0,17.0,21,0.00,,,0.00,0.000000,,2013-01-20 10:22:00,
2013-01-20 03:32:00,24.0,-10.0,-100.00,South,179,10.0,17.0,21,0.00,,,0.00,0.000000,,2013-01-20 10:32:00,
2013-01-20 03:42:00,24.0,-10.0,-100.00,South,179,10.0,17.0,21,0.00,,,0.00,0.000000,,2013-01-20 10:42:00,
2013-01-20 03:52:00,24.0,-10.0,-100.00,South,179,10.0,17.0,21,0.00,,,0.00,0.000000,,2013-01-20 10:52:00,
2013-01-20 04:12:00,21.0,-7.0,-100.00,South,185,11.0,19.0,28,0.00,,,0.00,0.000000,,2013-01-20 11:12:00,
2013-01-20 04:22:00,21.0,-7.0,-100.00,South,185,11.0,19.0,28,0.00,,,0.00,0.000000,,2013-01-20 11:22:00,
2013-01-20 04:33:00,21.0,-7.0,-100.00,South,185,11.0,19.0,28,0.00,,,0.00,0.000000,,2013-01-20 11:33:00,
2013-01-20 04:42:00,21.0,-7.0,-100.00,South,185,11.0,19.0,28,0.00,,,0.00,0.000000,,2013-01-20 11:42:00,
2013-01-20 04:53:00,21.0,-7.0,-100.00,South,185,11.0,19.0,28,0.00,,,0.00,0.000000,,2013-01-20 11:53:00,
2013-01-20 05:23:00,21.0,-5.0,-100.00,South,190,9.0,21.0,31,0.00,,,0.00,0.000000,,2013-01-20 12:23:00,
2013-01-20 05:33:00,21.0,-5.0,-100.00,South,190,9.0,21.0,31,0.00,,,0.00,0.000000,,2013-01-20 12:33:00,
2013-01-20 05:43:00,21.0,-5.0,-100.00,South,190,9.0,21.0,31,0.00,,,0.00,0.000000,,2013-01-20 12:43:00,
2013-01-20 05:52:00,21.0,-5.0,-100.00,South,190,9.0,21.0,31,0.00,,,0.00,0.000000,,2013-01-20 12:52:00,
2013-01-20 06:12:00,21.0,-6.0,-100.00,SE,131,10.0,18.0,29,0.00,,,0.00,0.000000,,2013-01-20 13:12:00,
2013-01-20 06:23:00,21.0,-6.0,-100.00,SE,131,10.0,18.0,29,0.00,,,0.00,0.000000,,2013-01-20 13:23:00,
2013-01-20 06:33:00,21.0,-6.0,-100.00,SE,131,10.0,18.0,29,0.00,,,0.00,0.000000,,2013-01-20 13:33:00,
2013-01-20 06:43:00,21.0,-6.0,-100.00,SE,131,10.0,18.0,29,0.00,,,0.00,0.000000,,2013-01-20 13:43:00,
2013-01-20 06:52:00,21.0,-6.0,-100.00,SE,131,10.0,18.0,29,0.00,,,0.00,0.000000,,2013-01-20 13:52:00,
2013-01-20 07:12:00,21.0,-8.0,-100.00,SSE,151,10.0,21.0,27,0.00,,,0.00,0.000000,,2013-01-20 14:12:00,
2013-01-20 07:23:00,21.0,-8.0,-100.00,SSE,151,10.0,21.0,27,0.00,,,0.00,0.000000,,2013-01-20 14:23:00,
2013-01-20 07:33:00,21.0,-8.0,-100.00,SSE,151,10.0,21.0,27,0.00,,,0.00,0.000000,,2013-01-20 14:33:00,
2013-01-20 07:42:00,21.0,-8.0,-100.00,SSE,151,10.0,21.0,27,0.00,,,0.00,0.000000,,2013-01-20 14:42:00,
2013-01-20 07:52:00,21.0,-8.0,-100.00,SSE,151,10.0,21.0,27,0.00,,,0.00,0.000000,,2013-01-20 14:52:00,
2013-01-20 08:12:00,22.0,-10.0,-100.00,SSE,162,5.0,18.0,23,0.00,,,0.00,7.000000,,2013-01-20 15:12:00,
2013-01-20 08:23:00,22.0,-10.0,-100.00,SSE,162,5.0,18.0,23,0.00,,,0.00,7.000000,,2013-01-20 15:23:00,
2013-01-20 08:33:00,22.0,-10.0,-100.00,SSE,162,5.0,18.0,23,0.00,,,0.00,7.000000,,2013-01-20 15:33:00,
2013-01-20 08:42:00,22.0,-10.0,-100.00,SSE,162,5.0,18.0,23,0.00,,,0.00,7.000000,,2013-01-20 15:42:00,
2013-01-20 08:52:00,22.0,-10.0,-100.00,SSE,162,5.0,18.0,23,0.00,,,0.00,7.000000,,2013-01-20 15:52:00,
2013-01-20 09:12:00,29.0,-9.0,-100.00,NNE,22,3.0,8.0,18,0.00,,,0.00,137.000000,,2013-01-20 16:12:00,
2013-01-20 09:23:00,29.0,-9.0,-100.00,NNE,22,3.0,8.0,18,0.00,,,0.00,137.000000,,2013-01-20 16:23:00,
2013-01-20 09:33:00,29.0,-9.0,-100.00,NNE,22,3.0,8.0,18,0.00,,,0.00,137.000000,,2013-01-20 16:33:00,
2013-01-20 09:43:00,29.0,-9.0,-100.00,NNE,22,3.0,8.0,18,0.00,,,0.00,137.000000,,2013-01-20 16:43:00,
2013-01-20 09:52:00,29.0,-9.0,-100.00,NNE,22,3.0,8.0,18,0.00,,,0.00,137.000000,,2013-01-20 16:52:00,
2013-01-20 10:13:00,33.0,-10.0,-100.00,SSE,155,3.0,10.0,15,0.00,,,0.00,301.000000,,2013-01-20 17:13:00,
2013-01-20 10:22:00,33.0,-10.0,-100.00,SSE,155,3.0,10.0,15,0.00,,,0.00,301.000000,,2013-01-20 17:22:00,
2013-01-20 10:33:00,33.0,-10.0,-100.00,SSE,155,3.0,10.0,15,0.00,,,0.00,301.000000,,2013-01-20 17:33:00,
2013-01-20 10:42:00,33.0,-10.0,-100.00,SSE,155,3.0,10.0,15,0.00,,,0.00,301.000000,,2013-01-20 17:42:00,
2013-01-20 10:52:00,33.0,-10.0,-100.00,SSE,155,3.0,10.0,15,0.00,,,0.00,301.000000,,2013-01-20 17:52:00,
2013-01-20 11:23:00,36.0,-7.0,-100.00,WSW,255,4.0,10.0,15,0.00,,,0.00,450.000000,,2013-01-20 18:23:00,
2013-01-20 11:33:00,36.0,-7.0,-100.00,WSW,255,4.0,10.0,15,0.00,,,0.00,450.000000,,2013-01-20 18:33:00,
2013-01-20 11:43:00,36.0,-7.0,-100.00,WSW,255,4.0,10.0,15,0.00,,,0.00,450.000000,,2013-01-20 18:43:00,
2013-01-20 11:53:00,36.0,-7.0,-100.00,WSW,255,4.0,10.0,15,0.00,,,0.00,450.000000,,2013-01-20 18:53:00,
2013-01-20 12:12:00,37.0,-6.0,-100.00,West,272,6.0,15.0,15,0.00,,,0.00,526.000000,,2013-01-20 19:12:00,
2013-01-20 12:22:00,37.0,-6.0,-100.00,West,272,6.0,15.0,15,0.00,,,0.00,526.000000,,2013-01-20 19:22:00,
2013-01-20 12:33:00,37.0,-6.0,-100.00,West,272,6.0,15.0,15,0.00,,,0.00,526.000000,,2013-01-20 19:33:00,
2013-01-20 12:43:00,37.0,-6.0,-100.00,West,272,6.0,15.0,15,0.00,,,0.00,526.000000,,2013-01-20 19:43:00,
2013-01-20 12:52:00,37.0,-6.0,-100.00,West,272,6.0,15.0,15,0.00,,,0.00,526.000000,,2013-01-20 19:52:00,
2013-01-20 13:23:00,40.0,-7.0,-100.00,West,272,5.0,16.0,13,0.00,,,0.00,546.000000,,2013-01-20 20:23:00,
2013-01-20 13:33:00,40.0,-7.0,-100.00,West,272,5.0,16.0,13,0.00,,,0.00,546.000000,,2013-01-20 20:33:00,
2013-01-20 13:42:00,40.0,-7.0,-100.00,West,272,5.0,16.0,13,0.00,,,0.00,546.000000,,2013-01-20 20:42:00,
2013-01-20 13:53:00,40.0,-7.0,-100.00,West,272,5.0,16.0,13,0.00,,,0.00,546.000000,,2013-01-20 20:53:00,
2013-01-20 14:13:00,38.0,-7.0,-100.00,West,260,9.0,15.0,14,0.00,,,0.00,504.000000,,2013-01-20 21:13:00,
2013-01-20 14:23:00,38.0,-7.0,-100.00,West,260,9.0,15.0,14,0.00,,,0.00,504.000000,,2013-01-20 21:23:00,
2013-01-20 14:33:00,38.0,-7.0,-100.00,West,260,9.0,15.0,14,0.00,,,0.00,504.000000,,2013-01-20 21:33:00,
2013-01-20 14:43:00,38.0,-7.0,-100.00,West,260,9.0,15.0,14,0.00,,,0.00,504.000000,,2013-01-20 21:43:00,
2013-01-20 14:52:00,38.0,-7.0,-100.00,West,260,9.0,15.0,14,0.00,,,0.00,504.000000,,2013-01-20 21:52:00,
2013-01-20 15:23:00,38.0,-4.0,-100.00,WNW,282,7.0,15.0,16,0.00,,,0.00,410.000000,,2013-01-20 22:23:00,
2013-01-20 15:33:00,38.0,-4.0,-100.00,WNW,282,7.0,15.0,16,0.00,,,0.00,410.000000,,2013-01-20 22:33:00,
2013-01-20 15:43:00,38.0,-4.0,-100.00,WNW,282,7.0,15.0,16,0.00,,,0.00,410.000000,,2013-01-20 22:43:00,
2013-01-20 15:52:00,38.0,-4.0,-100.00,WNW,282,7.0,15.0,16,0.00,,,0.00,410.000000,,2013-01-20 22:52:00,
2013-01-20 16:23:00,36.0,-1.0,-100.00,WSW,254,7.0,15.0,20,0.00,,,0.00,275.000000,,2013-01-20 23:23:00,
2013-01-20 16:33:00,36.0,-1.0,-100.00,WSW,254,7.0,15.0,20,0.00,,,0.00,275.000000,,2013-01-20 23:33:00,
2013-01-20 16:43:00,36.0,-1.0,-100.00,WSW,254,7.0,15.0,20,0.00,,,0.00,275.000000,,2013-01-20 23:43:00,
2013-01-20 16:53:00,36.0,-1.0,-100.00,WSW,254,7.0,15.0,20,0.00,,,0.00,275.000000,,2013-01-20 23:53:00,
2013-01-20 17:23:00,33.0,-3.0,-100.00,NW,311,3.0,14.0,21,0.00,,,0.00,102.000000,,2013-01-21 00:23:00,
2013-01-20 17:33:00,33.0,-3.0,-100.00,NW,311,3.0,14.0,21,0.00,,,0.00,102.000000,,2013-01-21 00:33:00,
2013-01-20 17:43:00,33.0,-3.0,-100.00,NW,311,3.0,14.0,21,0.00,,,0.00,102.000000,,2013-01-21 00:43:00,
2013-01-20 17:53:00,33.0,-3.0,-100.00,NW,311,3.0,14.0,21,0.00,,,0.00,102.000000,,2013-01-21 00:53:00,
2013-01-20 18:13:00,26.0,-3.0,-100.00,WNW,290,4.0,13.0,27,0.00,,,0.00,3.000000,,2013-01-21 01:13:00,
2013-01-20 18:23:00,26.0,-3.0,-100.00,WNW,290,4.0,13.0,27,0.00,,,0.00,3.000000,,2013-01-21 01:23:00,
2013-01-20 18:33:00,26.0,-3.0,-100.00,WNW,290,4.0,13.0,27,0.00,,,0.00,3.000000,,2013-01-21 01:33:00,
2013-01-20 18:43:00,26.0,-3.0,-100.00,WNW,290,4.0,13.0,27,0.00,,,0.00,3.000000,,2013-01-21 01:43:00,
2013-01-20 18:52:00,26.0,-3.0,-100.00,WNW,290,4.0,13.0,27,0.00,,,0.00,3.000000,,2013-01-21 01:52:00,
2013-01-20 19:23:00,25.0,-3.0,-100.00,West,262,7.0,16.0,28,0.00,,,0.00,0.000000,,2013-01-21 02:23:00,
2013-01-20 19:33:00,25.0,-3.0,-100.00,West,262,7.0,16.0,28,0.00,,,0.00,0.000000,,2013-01-21 02:33:00,
2013-01-20 19:43:00,25.0,-3.0,-100.00,West,262,7.0,16.0,28,0.00,,,0.00,0.000000,,2013-01-21 02:43:00,
2013-01-20 19:53:00,25.0,-3.0,-100.00,West,262,7.0,16.0,28,0.00,,,0.00,0.000000,,2013-01-21 02:53:00,
2013-01-20 20:23:00,23.0,-4.0,-100.00,SW,235,5.0,14.0,30,0.00,,,0.00,0.000000,,2013-01-21 03:23:00,
2013-01-20 20:33:00,23.0,-4.0,-100.00,SW,235,5.0,14.0,30,0.00,,,0.00,0.000000,,2013-01-21 03:33:00,
2013-01-20 20:43:00,23.0,-4.0,-100.00,SW,235,5.0,14.0,30,0.00,,,0.00,0.000000,,2013-01-21 03:43:00,
2013-01-20 20:52:00,23.0,-4.0,-100.00,SW,235,5.0,14.0,30,0.00,,,0.00,0.000000,,2013-01-21 03:52:00,
2013-01-20 21:12:00,22.0,-3.0,-100.00,West,260,6.0,14.0,33,0.00,,,0.00,0.000000,,2013-01-21 04:12:00,
2013-01-20 21:23:00,22.0,-3.0,-100.00,West,260,6.0,14.0,33,0.00,,,0.00,0.000000,,2013-01-21 04:23:00,
2013-01-20 21:33:00,22.0,-3.0,-100.00,West,260,6.0,14.0,33,0.00,,,0.00,0.000000,,2013-01-21 04:33:00,
2013-01-20 21:43:00,22.0,-3.0,-100.00,West,260,6.0,14.0,33,0.00,,,0.00,0.000000,,2013-01-21 04:43:00,
2013-01-20 21:53:00,22.0,-3.0,-100.00,West,260,6.0,14.0,33,0.00,,,0.00,0.000000,,2013-01-21 04:53:00,
2013-01-20 22:12:00,21.0,-2.0,-100.00,SSE,165,5.0,11.0,36,0.00,,,0.00,0.000000,,2013-01-21 05:12:00,
2013-01-20 22:22:00,21.0,-2.0,-100.00,SSE,165,5.0,11.0,36,0.00,,,0.00,0.000000,,2013-01-21 05:22:00,
2013-01-20 22:34:00,21.0,-2.0,-100.00,SSE,165,5.0,11.0,36,0.00,,,0.00,0.000000,,2013-01-21 05:34:00,
2013-01-20 22:42:00,21.0,-2.0,-100.00,SSE,165,5.0,11.0,36,0.00,,,0.00,0.000000,,2013-01-21 05:42:00,
2013-01-20 22:52:00,21.0,-2.0,-100.00,SSE,165,5.0,11.0,36,0.00,,,0.00,0.000000,,2013-01-21 05:52:00,
2013-01-20 23:13:00,23.0,-1.0,-100.00,WSW,257,7.0,18.0,35,0.00,,,0.00,0.000000,,2013-01-21 06:13:00,
2013-01-20 23:23:00,23.0,-1.0,-100.00,WSW,257,7.0,18.0,35,0.00,,,0.00,0.000000,,2013-01-21 06:23:00,
2013-01-20 23:33:00,23.0,-1.0,-100.00,WSW,257,7.0,18.0,35,0.00,,,0.00,0.000000,,2013-01-21 06:33:00,
2013-01-20 23:43:00,23.0,-1.0,-100.00,WSW,257,7.0,18.0,35,0.00,,,0.00,0.000000,,2013-01-21 06:43:00,
2013-01-20 23:52:00,23.0,-1.0,-100.00,WSW,257,7.0,18.0,35,0.00,,,0.00,0.000000,,2013-01-21 06:52:00,